sensor_id;sensor_type;location;lat;lon;timestamp;temperature;humidity
73112;HTU21D;61301;51.956;5.876;2023-08-17T00:01:52;23.72;50.92
73112;HTU21D;61301;51.956;5.876;2023-08-17T00:04:18;23.76;50.69
73112;HTU21D;61301;51.956;5.876;2023-08-17T00:06:44;23.76;50.63
73112;HTU21D;61301;51.956;5.876;2023-08-17T00:09:10;23.72;50.59
73112;HTU21D;61301;51.956;5.876;2023-08-17T00:11:38;23.67;50.69
73112;HTU21D;61301;51.956;5.876;2023-08-17T00:14:04;23.66;50.71
73112;HTU21D;61301;51.956;5.876;2023-08-17T00:16:31;23.60;50.76
73112;HTU21D;61301;51.956;5.876;2023-08-17T00:18:57;23.60;50.65
73112;HTU21D;61301;51.956;5.876;2023-08-17T00:21:23;23.59;50.58
73112;HTU21D;61301;51.956;5.876;2023-08-17T00:23:49;23.60;50.50
73112;HTU21D;61301;51.956;5.876;2023-08-17T00:26:15;23.60;50.49
73112;HTU21D;61301;51.956;5.876;2023-08-17T00:28:41;23.64;50.50
73112;HTU21D;61301;51.956;5.876;2023-08-17T00:31:07;23.66;50.40
73112;HTU21D;61301;51.956;5.876;2023-08-17T00:33:33;23.66;50.55
73112;HTU21D;61301;51.956;5.876;2023-08-17T00:35:59;23.68;51.14
73112;HTU21D;61301;51.956;5.876;2023-08-17T00:38:25;23.50;51.69
73112;HTU21D;61301;51.956;5.876;2023-08-17T00:40:51;23.53;51.65
73112;HTU21D;61301;51.956;5.876;2023-08-17T00:43:17;23.51;51.69
73112;HTU21D;61301;51.956;5.876;2023-08-17T00:45:45;23.50;51.75
73112;HTU21D;61301;51.956;5.876;2023-08-17T00:48:12;23.45;51.67
73112;HTU21D;61301;51.956;5.876;2023-08-17T00:50:39;23.41;51.91
73112;HTU21D;61301;51.956;5.876;2023-08-17T00:53:05;23.36;52.08
73112;HTU21D;61301;51.956;5.876;2023-08-17T00:55:33;23.32;52.41
73112;HTU21D;61301;51.956;5.876;2023-08-17T00:57:59;23.25;52.36
73112;HTU21D;61301;51.956;5.876;2023-08-17T01:00:25;23.15;52.65
73112;HTU21D;61301;51.956;5.876;2023-08-17T01:02:55;23.07;52.87
73112;HTU21D;61301;51.956;5.876;2023-08-17T01:05:21;22.96;53.19
73112;HTU21D;61301;51.956;5.876;2023-08-17T01:07:48;22.90;53.44
73112;HTU21D;61301;51.956;5.876;2023-08-17T01:10:14;22.80;54.05
73112;HTU21D;61301;51.956;5.876;2023-08-17T01:12:56;22.83;54.26
73112;HTU21D;61301;51.956;5.876;2023-08-17T01:15:34;22.77;54.31
73112;HTU21D;61301;51.956;5.876;2023-08-17T01:20:34;22.62;54.49
73112;HTU21D;61301;51.956;5.876;2023-08-17T01:23:06;22.62;54.86
73112;HTU21D;61301;51.956;5.876;2023-08-17T01:25:32;22.56;54.62
73112;HTU21D;61301;51.956;5.876;2023-08-17T01:28:05;22.58;54.53
73112;HTU21D;61301;51.956;5.876;2023-08-17T01:30:39;22.57;54.58
73112;HTU21D;61301;51.956;5.876;2023-08-17T01:33:09;22.60;54.57
73112;HTU21D;61301;51.956;5.876;2023-08-17T01:35:46;22.67;54.57
73112;HTU21D;61301;51.956;5.876;2023-08-17T01:38:18;22.66;54.52
73112;HTU21D;61301;51.956;5.876;2023-08-17T01:40:47;22.63;54.51
73112;HTU21D;61301;51.956;5.876;2023-08-17T01:43:14;22.55;54.83
73112;HTU21D;61301;51.956;5.876;2023-08-17T01:45:44;22.47;55.05
73112;HTU21D;61301;51.956;5.876;2023-08-17T01:48:10;22.42;55.03
73112;HTU21D;61301;51.956;5.876;2023-08-17T01:50:36;22.38;55.21
73112;HTU21D;61301;51.956;5.876;2023-08-17T01:53:02;22.35;55.10
73112;HTU21D;61301;51.956;5.876;2023-08-17T01:55:28;22.31;55.51
73112;HTU21D;61301;51.956;5.876;2023-08-17T01:57:54;22.33;55.23
73112;HTU21D;61301;51.956;5.876;2023-08-17T02:00:21;22.33;55.45
73112;HTU21D;61301;51.956;5.876;2023-08-17T02:02:47;22.31;55.32
73112;HTU21D;61301;51.956;5.876;2023-08-17T02:05:13;22.33;55.26
73112;HTU21D;61301;51.956;5.876;2023-08-17T02:07:39;22.32;55.46
73112;HTU21D;61301;51.956;5.876;2023-08-17T02:10:06;22.32;55.52
73112;HTU21D;61301;51.956;5.876;2023-08-17T02:12:32;22.28;55.50
73112;HTU21D;61301;51.956;5.876;2023-08-17T02:14:58;22.29;55.48
73112;HTU21D;61301;51.956;5.876;2023-08-17T02:17:24;22.25;55.46
73112;HTU21D;61301;51.956;5.876;2023-08-17T02:19:50;22.25;55.38
73112;HTU21D;61301;51.956;5.876;2023-08-17T02:22:16;22.26;55.28
73112;HTU21D;61301;51.956;5.876;2023-08-17T02:24:42;22.27;55.23
73112;HTU21D;61301;51.956;5.876;2023-08-17T02:27:09;22.27;55.25
73112;HTU21D;61301;51.956;5.876;2023-08-17T02:29:35;22.27;55.15
73112;HTU21D;61301;51.956;5.876;2023-08-17T02:32:01;22.28;55.04
73112;HTU21D;61301;51.956;5.876;2023-08-17T02:34:27;22.27;55.07
73112;HTU21D;61301;51.956;5.876;2023-08-17T02:36:53;22.24;55.10
73112;HTU21D;61301;51.956;5.876;2023-08-17T02:39:19;22.25;55.10
73112;HTU21D;61301;51.956;5.876;2023-08-17T02:41:45;22.24;55.20
73112;HTU21D;61301;51.956;5.876;2023-08-17T02:44:11;22.20;55.27
73112;HTU21D;61301;51.956;5.876;2023-08-17T02:46:37;22.23;55.13
73112;HTU21D;61301;51.956;5.876;2023-08-17T02:49:03;22.21;55.14
73112;HTU21D;61301;51.956;5.876;2023-08-17T02:51:29;22.20;55.21
73112;HTU21D;61301;51.956;5.876;2023-08-17T02:53:55;22.10;55.23
73112;HTU21D;61301;51.956;5.876;2023-08-17T02:56:21;22.09;55.16
73112;HTU21D;61301;51.956;5.876;2023-08-17T02:58:47;22.17;54.92
73112;HTU21D;61301;51.956;5.876;2023-08-17T03:01:13;22.05;55.13
73112;HTU21D;61301;51.956;5.876;2023-08-17T03:03:39;22.04;55.19
73112;HTU21D;61301;51.956;5.876;2023-08-17T03:06:05;21.96;55.23
73112;HTU21D;61301;51.956;5.876;2023-08-17T03:08:31;21.96;55.10
73112;HTU21D;61301;51.956;5.876;2023-08-17T03:10:57;21.98;55.17
73112;HTU21D;61301;51.956;5.876;2023-08-17T03:13:23;21.98;55.20
73112;HTU21D;61301;51.956;5.876;2023-08-17T03:15:50;21.96;55.16
73112;HTU21D;61301;51.956;5.876;2023-08-17T03:18:16;21.95;55.23
73112;HTU21D;61301;51.956;5.876;2023-08-17T03:20:43;21.98;55.16
73112;HTU21D;61301;51.956;5.876;2023-08-17T03:23:09;22.05;55.15
73112;HTU21D;61301;51.956;5.876;2023-08-17T03:25:36;21.99;55.20
73112;HTU21D;61301;51.956;5.876;2023-08-17T03:28:02;21.91;55.49
73112;HTU21D;61301;51.956;5.876;2023-08-17T03:30:28;21.84;55.61
73112;HTU21D;61301;51.956;5.876;2023-08-17T03:32:54;21.83;55.65
73112;HTU21D;61301;51.956;5.876;2023-08-17T03:35:20;21.83;55.53
73112;HTU21D;61301;51.956;5.876;2023-08-17T03:37:46;21.87;55.47
73112;HTU21D;61301;51.956;5.876;2023-08-17T03:40:14;21.83;55.52
73112;HTU21D;61301;51.956;5.876;2023-08-17T03:42:40;21.89;55.44
73112;HTU21D;61301;51.956;5.876;2023-08-17T03:45:07;21.81;55.65
73112;HTU21D;61301;51.956;5.876;2023-08-17T03:47:33;21.74;55.78
73112;HTU21D;61301;51.956;5.876;2023-08-17T03:50:00;21.68;56.01
73112;HTU21D;61301;51.956;5.876;2023-08-17T03:52:26;21.70;55.95
73112;HTU21D;61301;51.956;5.876;2023-08-17T03:54:52;21.66;55.87
73112;HTU21D;61301;51.956;5.876;2023-08-17T03:57:18;21.63;56.08
73112;HTU21D;61301;51.956;5.876;2023-08-17T03:59:44;21.54;56.30
73112;HTU21D;61301;51.956;5.876;2023-08-17T04:02:10;21.55;56.23
73112;HTU21D;61301;51.956;5.876;2023-08-17T04:04:37;21.51;56.29
73112;HTU21D;61301;51.956;5.876;2023-08-17T04:07:03;21.52;56.54
73112;HTU21D;61301;51.956;5.876;2023-08-17T04:09:29;21.51;56.39
73112;HTU21D;61301;51.956;5.876;2023-08-17T04:11:56;21.54;56.19
73112;HTU21D;61301;51.956;5.876;2023-08-17T04:14:23;21.58;56.27
73112;HTU21D;61301;51.956;5.876;2023-08-17T04:16:49;21.52;56.32
73112;HTU21D;61301;51.956;5.876;2023-08-17T04:19:16;21.51;56.27
73112;HTU21D;61301;51.956;5.876;2023-08-17T04:21:42;21.48;56.48
73112;HTU21D;61301;51.956;5.876;2023-08-17T04:24:08;21.47;56.42
73112;HTU21D;61301;51.956;5.876;2023-08-17T04:26:34;21.46;56.36
73112;HTU21D;61301;51.956;5.876;2023-08-17T04:29:01;21.54;56.07
73112;HTU21D;61301;51.956;5.876;2023-08-17T04:31:27;21.59;55.74
73112;HTU21D;61301;51.956;5.876;2023-08-17T04:33:59;21.44;56.30
73112;HTU21D;61301;51.956;5.876;2023-08-17T04:36:26;21.38;56.39
73112;HTU21D;61301;51.956;5.876;2023-08-17T04:38:54;21.35;56.39
73112;HTU21D;61301;51.956;5.876;2023-08-17T04:41:20;21.35;56.37
73112;HTU21D;61301;51.956;5.876;2023-08-17T04:43:46;21.37;56.29
73112;HTU21D;61301;51.956;5.876;2023-08-17T04:46:15;21.37;56.29
73112;HTU21D;61301;51.956;5.876;2023-08-17T04:48:41;21.38;56.26
73112;HTU21D;61301;51.956;5.876;2023-08-17T04:51:07;21.43;56.27
73112;HTU21D;61301;51.956;5.876;2023-08-17T04:53:34;21.53;55.93
73112;HTU21D;61301;51.956;5.876;2023-08-17T04:56:00;21.58;55.81
73112;HTU21D;61301;51.956;5.876;2023-08-17T04:58:26;21.61;55.92
73112;HTU21D;61301;51.956;5.876;2023-08-17T05:00:52;21.57;55.94
73112;HTU21D;61301;51.956;5.876;2023-08-17T05:03:18;21.58;56.01
73112;HTU21D;61301;51.956;5.876;2023-08-17T05:05:44;21.64;55.87
73112;HTU21D;61301;51.956;5.876;2023-08-17T05:08:10;21.66;55.72
73112;HTU21D;61301;51.956;5.876;2023-08-17T05:10:39;21.62;55.87
73112;HTU21D;61301;51.956;5.876;2023-08-17T05:13:04;21.63;55.90
73112;HTU21D;61301;51.956;5.876;2023-08-17T05:15:31;21.64;55.78
73112;HTU21D;61301;51.956;5.876;2023-08-17T05:17:57;21.68;55.68
73112;HTU21D;61301;51.956;5.876;2023-08-17T05:20:24;21.73;55.71
73112;HTU21D;61301;51.956;5.876;2023-08-17T05:22:50;21.77;55.51
73112;HTU21D;61301;51.956;5.876;2023-08-17T05:25:17;21.82;55.44
73112;HTU21D;61301;51.956;5.876;2023-08-17T05:27:45;21.85;55.54
73112;HTU21D;61301;51.956;5.876;2023-08-17T05:30:11;21.90;55.58
73112;HTU21D;61301;51.956;5.876;2023-08-17T05:32:37;21.96;55.34
73112;HTU21D;61301;51.956;5.876;2023-08-17T05:35:06;22.06;55.25
73112;HTU21D;61301;51.956;5.876;2023-08-17T05:37:32;22.07;55.24
73112;HTU21D;61301;51.956;5.876;2023-08-17T05:39:58;22.04;55.20
73112;HTU21D;61301;51.956;5.876;2023-08-17T05:42:24;22.07;55.30
73112;HTU21D;61301;51.956;5.876;2023-08-17T05:44:50;22.17;55.16
73112;HTU21D;61301;51.956;5.876;2023-08-17T05:47:16;22.23;55.12
73112;HTU21D;61301;51.956;5.876;2023-08-17T05:49:45;22.23;55.23
73112;HTU21D;61301;51.956;5.876;2023-08-17T05:52:11;22.28;55.24
73112;HTU21D;61301;51.956;5.876;2023-08-17T05:54:37;22.42;55.10
73112;HTU21D;61301;51.956;5.876;2023-08-17T05:57:03;22.47;54.90
73112;HTU21D;61301;51.956;5.876;2023-08-17T05:59:29;22.48;54.59
73112;HTU21D;61301;51.956;5.876;2023-08-17T06:01:55;22.60;54.30
73112;HTU21D;61301;51.956;5.876;2023-08-17T06:04:21;22.50;54.52
73112;HTU21D;61301;51.956;5.876;2023-08-17T06:06:47;22.64;54.27
73112;HTU21D;61301;51.956;5.876;2023-08-17T06:09:13;22.69;54.33
73112;HTU21D;61301;51.956;5.876;2023-08-17T06:11:40;22.78;54.18
73112;HTU21D;61301;51.956;5.876;2023-08-17T06:14:06;22.76;53.97
73112;HTU21D;61301;51.956;5.876;2023-08-17T06:16:32;22.82;53.78
73112;HTU21D;61301;51.956;5.876;2023-08-17T06:18:58;22.88;53.65
73112;HTU21D;61301;51.956;5.876;2023-08-17T06:21:24;23.02;53.52
73112;HTU21D;61301;51.956;5.876;2023-08-17T06:23:50;23.13;53.23
73112;HTU21D;61301;51.956;5.876;2023-08-17T06:26:16;23.14;53.03
73112;HTU21D;61301;51.956;5.876;2023-08-17T06:28:42;23.16;53.09
73112;HTU21D;61301;51.956;5.876;2023-08-17T06:31:08;23.18;53.20
73112;HTU21D;61301;51.956;5.876;2023-08-17T06:33:34;23.21;52.88
73112;HTU21D;61301;51.956;5.876;2023-08-17T06:36:00;23.07;52.98
73112;HTU21D;61301;51.956;5.876;2023-08-17T06:38:26;23.02;53.11
73112;HTU21D;61301;51.956;5.876;2023-08-17T06:40:52;23.08;53.21
73112;HTU21D;61301;51.956;5.876;2023-08-17T06:43:18;23.17;53.14
73112;HTU21D;61301;51.956;5.876;2023-08-17T06:45:44;23.24;52.95
73112;HTU21D;61301;51.956;5.876;2023-08-17T06:48:10;23.16;52.76
73112;HTU21D;61301;51.956;5.876;2023-08-17T06:50:36;23.14;52.82
73112;HTU21D;61301;51.956;5.876;2023-08-17T06:53:02;23.12;52.91
73112;HTU21D;61301;51.956;5.876;2023-08-17T06:55:28;23.08;52.96
73112;HTU21D;61301;51.956;5.876;2023-08-17T06:57:54;23.03;53.01
73112;HTU21D;61301;51.956;5.876;2023-08-17T07:00:21;23.01;53.17
73112;HTU21D;61301;51.956;5.876;2023-08-17T07:02:47;22.99;53.32
73112;HTU21D;61301;51.956;5.876;2023-08-17T07:05:17;22.94;53.43
73112;HTU21D;61301;51.956;5.876;2023-08-17T07:07:44;23.02;53.43
73112;HTU21D;61301;51.956;5.876;2023-08-17T07:10:10;23.14;53.27
73112;HTU21D;61301;51.956;5.876;2023-08-17T07:12:37;23.17;53.13
73112;HTU21D;61301;51.956;5.876;2023-08-17T07:15:04;23.22;53.04
73112;HTU21D;61301;51.956;5.876;2023-08-17T07:17:31;23.26;52.91
73112;HTU21D;61301;51.956;5.876;2023-08-17T07:19:57;23.32;52.95
73112;HTU21D;61301;51.956;5.876;2023-08-17T07:22:23;23.49;52.65
73112;HTU21D;61301;51.956;5.876;2023-08-17T07:24:49;23.53;52.67
73112;HTU21D;61301;51.956;5.876;2023-08-17T07:27:15;23.57;52.56
73112;HTU21D;61301;51.956;5.876;2023-08-17T07:29:40;23.68;52.37
73112;HTU21D;61301;51.956;5.876;2023-08-17T07:32:06;23.76;52.18
73112;HTU21D;61301;51.956;5.876;2023-08-17T07:34:33;23.85;52.04
73112;HTU21D;61301;51.956;5.876;2023-08-17T07:36:59;23.84;51.97
73112;HTU21D;61301;51.956;5.876;2023-08-17T07:39:25;23.81;52.13
73112;HTU21D;61301;51.956;5.876;2023-08-17T07:41:51;23.89;51.98
73112;HTU21D;61301;51.956;5.876;2023-08-17T07:44:17;23.86;51.85
73112;HTU21D;61301;51.956;5.876;2023-08-17T07:46:43;23.87;51.86
73112;HTU21D;61301;51.956;5.876;2023-08-17T07:49:09;23.77;51.88
73112;HTU21D;61301;51.956;5.876;2023-08-17T07:51:35;23.64;52.13
73112;HTU21D;61301;51.956;5.876;2023-08-17T07:54:01;23.55;52.56
73112;HTU21D;61301;51.956;5.876;2023-08-17T07:56:27;23.47;52.64
73112;HTU21D;61301;51.956;5.876;2023-08-17T07:58:54;23.54;52.47
73112;HTU21D;61301;51.956;5.876;2023-08-17T08:01:20;23.50;52.51
73112;HTU21D;61301;51.956;5.876;2023-08-17T08:03:46;23.43;52.77
73112;HTU21D;61301;51.956;5.876;2023-08-17T08:06:12;23.53;52.70
73112;HTU21D;61301;51.956;5.876;2023-08-17T08:08:39;23.52;52.82
73112;HTU21D;61301;51.956;5.876;2023-08-17T08:11:05;23.64;52.58
73112;HTU21D;61301;51.956;5.876;2023-08-17T08:13:32;23.58;52.56
73112;HTU21D;61301;51.956;5.876;2023-08-17T08:16:01;23.52;52.60
73112;HTU21D;61301;51.956;5.876;2023-08-17T08:18:27;23.43;52.81
73112;HTU21D;61301;51.956;5.876;2023-08-17T08:20:52;23.43;52.89
73112;HTU21D;61301;51.956;5.876;2023-08-17T08:23:18;23.38;53.17
73112;HTU21D;61301;51.956;5.876;2023-08-17T08:25:44;23.50;52.94
73112;HTU21D;61301;51.956;5.876;2023-08-17T08:28:10;23.51;52.73
73112;HTU21D;61301;51.956;5.876;2023-08-17T08:30:36;23.50;52.80
73112;HTU21D;61301;51.956;5.876;2023-08-17T08:33:02;23.44;53.05
73112;HTU21D;61301;51.956;5.876;2023-08-17T08:35:29;23.32;53.17
73112;HTU21D;61301;51.956;5.876;2023-08-17T08:37:55;23.37;53.23
73112;HTU21D;61301;51.956;5.876;2023-08-17T08:40:28;23.40;53.32
73112;HTU21D;61301;51.956;5.876;2023-08-17T08:42:57;23.44;53.22
73112;HTU21D;61301;51.956;5.876;2023-08-17T08:45:24;23.47;52.98
73112;HTU21D;61301;51.956;5.876;2023-08-17T08:47:52;23.40;53.10
73112;HTU21D;61301;51.956;5.876;2023-08-17T08:50:20;23.32;53.39
73112;HTU21D;61301;51.956;5.876;2023-08-17T08:53:01;23.35;53.33
73112;HTU21D;61301;51.956;5.876;2023-08-17T08:55:34;23.45;53.05
73112;HTU21D;61301;51.956;5.876;2023-08-17T08:58:00;23.44;52.98
73112;HTU21D;61301;51.956;5.876;2023-08-17T09:00:26;23.38;53.18
73112;HTU21D;61301;51.956;5.876;2023-08-17T09:02:53;23.32;53.31
73112;HTU21D;61301;51.956;5.876;2023-08-17T09:05:21;23.27;53.59
73112;HTU21D;61301;51.956;5.876;2023-08-17T09:07:48;23.52;53.10
73112;HTU21D;61301;51.956;5.876;2023-08-17T09:10:14;23.65;52.88
73112;HTU21D;61301;51.956;5.876;2023-08-17T09:12:45;23.74;52.78
73112;HTU21D;61301;51.956;5.876;2023-08-17T09:15:11;23.82;52.66
73112;HTU21D;61301;51.956;5.876;2023-08-17T09:17:37;23.89;52.56
73112;HTU21D;61301;51.956;5.876;2023-08-17T09:20:04;23.90;52.53
73112;HTU21D;61301;51.956;5.876;2023-08-17T09:22:41;23.98;52.44
73112;HTU21D;61301;51.956;5.876;2023-08-17T09:25:09;23.91;52.48
73112;HTU21D;61301;51.956;5.876;2023-08-17T09:27:38;23.94;52.56
73112;HTU21D;61301;51.956;5.876;2023-08-17T09:30:06;23.92;52.58
73112;HTU21D;61301;51.956;5.876;2023-08-17T09:32:33;23.88;52.62
73112;HTU21D;61301;51.956;5.876;2023-08-17T09:35:03;23.96;52.59
73112;HTU21D;61301;51.956;5.876;2023-08-17T09:37:32;23.92;52.76
73112;HTU21D;61301;51.956;5.876;2023-08-17T09:39:58;23.92;52.88
73112;HTU21D;61301;51.956;5.876;2023-08-17T09:42:24;23.96;52.83
73112;HTU21D;61301;51.956;5.876;2023-08-17T09:44:52;24.03;52.89
73112;HTU21D;61301;51.956;5.876;2023-08-17T09:47:19;24.04;53.03
73112;HTU21D;61301;51.956;5.876;2023-08-17T09:49:51;24.15;52.81
73112;HTU21D;61301;51.956;5.876;2023-08-17T09:52:21;24.25;52.37
73112;HTU21D;61301;51.956;5.876;2023-08-17T09:54:47;24.25;52.25
73112;HTU21D;61301;51.956;5.876;2023-08-17T09:57:14;24.29;52.13
73112;HTU21D;61301;51.956;5.876;2023-08-17T09:59:41;24.39;52.11
73112;HTU21D;61301;51.956;5.876;2023-08-17T10:02:22;24.54;51.50
73112;HTU21D;61301;51.956;5.876;2023-08-17T10:04:52;24.46;51.75
73112;HTU21D;61301;51.956;5.876;2023-08-17T10:07:19;24.48;51.79
73112;HTU21D;61301;51.956;5.876;2023-08-17T10:09:53;24.47;51.66
73112;HTU21D;61301;51.956;5.876;2023-08-17T10:12:27;24.42;52.01
73112;HTU21D;61301;51.956;5.876;2023-08-17T10:14:59;24.45;52.12
73112;HTU21D;61301;51.956;5.876;2023-08-17T10:17:27;24.61;51.85
73112;HTU21D;61301;51.956;5.876;2023-08-17T10:19:58;24.56;52.04
73112;HTU21D;61301;51.956;5.876;2023-08-17T10:22:30;24.56;51.95
73112;HTU21D;61301;51.956;5.876;2023-08-17T10:25:00;24.56;51.85
73112;HTU21D;61301;51.956;5.876;2023-08-17T10:27:27;24.58;51.88
73112;HTU21D;61301;51.956;5.876;2023-08-17T10:29:54;24.65;51.83
73112;HTU21D;61301;51.956;5.876;2023-08-17T10:32:22;24.70;51.84
73112;HTU21D;61301;51.956;5.876;2023-08-17T10:34:50;24.76;51.75
73112;HTU21D;61301;51.956;5.876;2023-08-17T10:37:18;24.65;52.08
73112;HTU21D;61301;51.956;5.876;2023-08-17T10:39:46;24.62;52.13
73112;HTU21D;61301;51.956;5.876;2023-08-17T10:42:13;24.76;52.05
73112;HTU21D;61301;51.956;5.876;2023-08-17T10:44:49;24.82;51.79
73112;HTU21D;61301;51.956;5.876;2023-08-17T10:47:19;24.82;51.67
73112;HTU21D;61301;51.956;5.876;2023-08-17T10:49:51;24.85;51.67
73112;HTU21D;61301;51.956;5.876;2023-08-17T10:52:34;25.00;51.39
73112;HTU21D;61301;51.956;5.876;2023-08-17T10:55:01;25.13;50.95
73112;HTU21D;61301;51.956;5.876;2023-08-17T10:57:35;25.13;50.99
73112;HTU21D;61301;51.956;5.876;2023-08-17T11:00:06;25.21;50.98
73112;HTU21D;61301;51.956;5.876;2023-08-17T11:02:39;25.24;50.97
73112;HTU21D;61301;51.956;5.876;2023-08-17T11:05:06;25.13;50.81
73112;HTU21D;61301;51.956;5.876;2023-08-17T11:07:45;25.05;50.84
73112;HTU21D;61301;51.956;5.876;2023-08-17T11:12:46;25.02;51.08
73112;HTU21D;61301;51.956;5.876;2023-08-17T11:15:12;25.06;51.08
73112;HTU21D;61301;51.956;5.876;2023-08-17T11:17:38;25.10;51.15
73112;HTU21D;61301;51.956;5.876;2023-08-17T11:20:05;25.18;50.98
73112;HTU21D;61301;51.956;5.876;2023-08-17T11:22:31;25.16;50.98
73112;HTU21D;61301;51.956;5.876;2023-08-17T11:24:58;25.17;51.12
73112;HTU21D;61301;51.956;5.876;2023-08-17T11:27:24;25.22;51.07
73112;HTU21D;61301;51.956;5.876;2023-08-17T11:29:51;25.21;50.98
73112;HTU21D;61301;51.956;5.876;2023-08-17T11:32:17;25.24;51.07
73112;HTU21D;61301;51.956;5.876;2023-08-17T11:34:43;25.20;51.02
73112;HTU21D;61301;51.956;5.876;2023-08-17T11:37:12;25.22;51.14
73112;HTU21D;61301;51.956;5.876;2023-08-17T11:39:38;25.27;51.00
73112;HTU21D;61301;51.956;5.876;2023-08-17T11:42:04;25.29;50.88
73112;HTU21D;61301;51.956;5.876;2023-08-17T11:44:30;25.27;50.74
73112;HTU21D;61301;51.956;5.876;2023-08-17T11:46:57;25.20;50.90
73112;HTU21D;61301;51.956;5.876;2023-08-17T11:49:23;25.17;50.93
73112;HTU21D;61301;51.956;5.876;2023-08-17T11:51:51;25.16;51.10
73112;HTU21D;61301;51.956;5.876;2023-08-17T11:54:17;25.21;51.10
73112;HTU21D;61301;51.956;5.876;2023-08-17T11:56:43;25.24;50.97
73112;HTU21D;61301;51.956;5.876;2023-08-17T11:59:10;25.14;51.01
73112;HTU21D;61301;51.956;5.876;2023-08-17T12:01:37;25.14;51.14
73112;HTU21D;61301;51.956;5.876;2023-08-17T12:04:07;25.16;51.18
73112;HTU21D;61301;51.956;5.876;2023-08-17T12:06:33;25.15;51.18
73112;HTU21D;61301;51.956;5.876;2023-08-17T12:08:59;25.16;51.15
73112;HTU21D;61301;51.956;5.876;2023-08-17T12:11:25;25.08;51.24
73112;HTU21D;61301;51.956;5.876;2023-08-17T12:13:52;25.06;51.39
73112;HTU21D;61301;51.956;5.876;2023-08-17T12:16:20;25.06;51.50
73112;HTU21D;61301;51.956;5.876;2023-08-17T12:18:52;25.12;51.55
73112;HTU21D;61301;51.956;5.876;2023-08-17T12:21:22;25.16;51.42
73112;HTU21D;61301;51.956;5.876;2023-08-17T12:23:48;25.21;51.33
73112;HTU21D;61301;51.956;5.876;2023-08-17T12:26:19;25.22;51.33
73112;HTU21D;61301;51.956;5.876;2023-08-17T12:28:45;25.24;51.29
73112;HTU21D;61301;51.956;5.876;2023-08-17T12:31:11;25.16;51.39
73112;HTU21D;61301;51.956;5.876;2023-08-17T12:33:37;25.01;51.75
73112;HTU21D;61301;51.956;5.876;2023-08-17T12:36:03;25.03;51.82
73112;HTU21D;61301;51.956;5.876;2023-08-17T12:38:30;24.92;52.00
73112;HTU21D;61301;51.956;5.876;2023-08-17T12:40:56;24.94;52.07
73112;HTU21D;61301;51.956;5.876;2023-08-17T12:43:22;25.02;52.01
73112;HTU21D;61301;51.956;5.876;2023-08-17T12:45:48;24.99;52.06
73112;HTU21D;61301;51.956;5.876;2023-08-17T12:48:15;25.03;52.04
73112;HTU21D;61301;51.956;5.876;2023-08-17T12:50:41;25.07;52.04
73112;HTU21D;61301;51.956;5.876;2023-08-17T12:53:07;25.13;51.98
73112;HTU21D;61301;51.956;5.876;2023-08-17T12:55:33;25.17;51.94
73112;HTU21D;61301;51.956;5.876;2023-08-17T12:57:59;25.18;51.86
73112;HTU21D;61301;51.956;5.876;2023-08-17T13:00:25;25.20;51.86
73112;HTU21D;61301;51.956;5.876;2023-08-17T13:02:51;25.23;51.80
73112;HTU21D;61301;51.956;5.876;2023-08-17T13:05:17;25.20;51.91
73112;HTU21D;61301;51.956;5.876;2023-08-17T13:07:43;25.24;51.89
73112;HTU21D;61301;51.956;5.876;2023-08-17T13:10:09;25.23;51.75
73112;HTU21D;61301;51.956;5.876;2023-08-17T13:12:35;25.22;51.94
73112;HTU21D;61301;51.956;5.876;2023-08-17T13:15:01;25.24;51.85
73112;HTU21D;61301;51.956;5.876;2023-08-17T13:17:27;25.22;51.89
73112;HTU21D;61301;51.956;5.876;2023-08-17T13:19:53;25.27;51.84
73112;HTU21D;61301;51.956;5.876;2023-08-17T13:22:19;25.24;51.91
73112;HTU21D;61301;51.956;5.876;2023-08-17T13:24:45;25.28;51.88
73112;HTU21D;61301;51.956;5.876;2023-08-17T13:27:11;25.25;51.91
73112;HTU21D;61301;51.956;5.876;2023-08-17T13:29:37;25.17;52.01
73112;HTU21D;61301;51.956;5.876;2023-08-17T13:32:04;25.20;52.04
73112;HTU21D;61301;51.956;5.876;2023-08-17T13:34:30;25.20;52.01
73112;HTU21D;61301;51.956;5.876;2023-08-17T13:36:56;25.20;52.01
73112;HTU21D;61301;51.956;5.876;2023-08-17T13:39:22;25.24;52.00
73112;HTU21D;61301;51.956;5.876;2023-08-17T13:41:48;25.30;51.95
73112;HTU21D;61301;51.956;5.876;2023-08-17T13:44:14;25.27;51.96
73112;HTU21D;61301;51.956;5.876;2023-08-17T13:46:40;25.24;52.04
73112;HTU21D;61301;51.956;5.876;2023-08-17T13:49:06;25.29;52.10
73112;HTU21D;61301;51.956;5.876;2023-08-17T13:51:32;25.28;52.08
73112;HTU21D;61301;51.956;5.876;2023-08-17T13:53:58;25.35;52.00
73112;HTU21D;61301;51.956;5.876;2023-08-17T13:56:24;25.35;52.05
73112;HTU21D;61301;51.956;5.876;2023-08-17T13:58:50;25.32;52.08
73112;HTU21D;61301;51.956;5.876;2023-08-17T14:01:16;25.27;52.20
73112;HTU21D;61301;51.956;5.876;2023-08-17T14:03:42;25.20;52.32
73112;HTU21D;61301;51.956;5.876;2023-08-17T14:06:08;25.09;52.62
73112;HTU21D;61301;51.956;5.876;2023-08-17T14:08:34;24.99;53.01
73112;HTU21D;61301;51.956;5.876;2023-08-17T14:11:00;24.92;53.20
73112;HTU21D;61301;51.956;5.876;2023-08-17T14:13:26;24.92;53.22
73112;HTU21D;61301;51.956;5.876;2023-08-17T14:15:52;24.88;53.46
73112;HTU21D;61301;51.956;5.876;2023-08-17T14:18:21;24.84;53.71
73112;HTU21D;61301;51.956;5.876;2023-08-17T14:20:48;24.86;53.75
73112;HTU21D;61301;51.956;5.876;2023-08-17T14:23:14;24.94;53.56
73112;HTU21D;61301;51.956;5.876;2023-08-17T14:25:40;25.08;53.07
73112;HTU21D;61301;51.956;5.876;2023-08-17T14:28:06;25.13;53.04
73112;HTU21D;61301;51.956;5.876;2023-08-17T14:30:33;25.19;52.98
73112;HTU21D;61301;51.956;5.876;2023-08-17T14:32:59;25.22;52.91
73112;HTU21D;61301;51.956;5.876;2023-08-17T14:35:29;25.27;52.83
73112;HTU21D;61301;51.956;5.876;2023-08-17T14:37:55;25.28;52.81
73112;HTU21D;61301;51.956;5.876;2023-08-17T14:40:23;25.29;52.79
73112;HTU21D;61301;51.956;5.876;2023-08-17T14:42:49;25.30;52.78
73112;HTU21D;61301;51.956;5.876;2023-08-17T14:45:15;25.20;53.00
73112;HTU21D;61301;51.956;5.876;2023-08-17T14:47:41;25.17;53.17
73112;HTU21D;61301;51.956;5.876;2023-08-17T14:50:07;25.16;53.20
73112;HTU21D;61301;51.956;5.876;2023-08-17T14:52:34;25.23;53.07
73112;HTU21D;61301;51.956;5.876;2023-08-17T14:55:00;25.23;53.10
73112;HTU21D;61301;51.956;5.876;2023-08-17T14:57:26;25.25;53.04
73112;HTU21D;61301;51.956;5.876;2023-08-17T14:59:52;25.30;52.89
73112;HTU21D;61301;51.956;5.876;2023-08-17T15:02:18;25.23;53.10
73112;HTU21D;61301;51.956;5.876;2023-08-17T15:04:44;25.28;52.96
73112;HTU21D;61301;51.956;5.876;2023-08-17T15:07:10;25.34;52.81
73112;HTU21D;61301;51.956;5.876;2023-08-17T15:09:38;25.31;52.84
73112;HTU21D;61301;51.956;5.876;2023-08-17T15:12:04;25.30;52.93
73112;HTU21D;61301;51.956;5.876;2023-08-17T15:14:30;25.21;53.08
73112;HTU21D;61301;51.956;5.876;2023-08-17T15:16:56;25.27;52.99
73112;HTU21D;61301;51.956;5.876;2023-08-17T15:19:22;25.24;53.06